KTIK/TIK METAR and TAF weather

Enter ICAO airport designator
Station Type Date Time Source
KTIK METAR 2018/12/11 19:56 UTC NOAA

KTIK 111956Z AUTO 20022G27KT 10SM CLR 15/00 A3004 RMK AO2 PK WND 20031/32 SLP183 T01501003


Station Type Date Time Source
KTIK Decoded METAR 2018/12/11 19:56 UTC NOAA

Tinker Air Force Base, OK, United States (KTIK) 35-25N 097-23W 397M
Dec 11, 2018 - 02:56 PM EST / 2018.12.11 1956 UTC
Wind: from the SSW (200 degrees) at 25 MPH (22 KT) gusting to 31 MPH (27 KT):0
Visibility: 10 mile(s):0
Sky conditions: clear
Temperature: 59.0 F (15.0 C)
Dew Point: 31.5 F (-0.3 C)
Relative Humidity: 35%
Pressure (altimeter): 30.04 in. Hg (1017 hPa)
ob: KTIK 111956Z AUTO 20022G27KT 10SM CLR 15/00 A3004 RMK AO2 PK WND 20031/32 SLP183 T01501003
cycle: 20

Station Type Date Time Source
KTIK TAF 2018/12/11 19:36 UTC NOAA

TAF
AMD KTIK 111915Z 1119/1224 20015G25KT 9999 SCT160 QNH2998INS
TEMPO 1120/1122 21020G35KT 510063
BECMG 1123/1124 23012KT 9999 SCT025 510053 QNH2997INS
BECMG 1209/1210 VRB06KT 8000 BR SCT010 BKN020 QNH2992INS
BECMG 1216/1217 18012KT 9999 NSW SCT006 OVC010 QNH2976INS
TEMPO 1217/1220 8000 BR OVC006 TX17/1121Z TN02/1213Z


Example: see airport list